createdAt,value
2022-10-01T00:03:45.266Z,0.24
2022-10-01T00:08:49.900Z,0.27
2022-10-01T00:13:53.895Z,0.33
2022-10-01T00:18:58.341Z,0.27
2022-10-01T00:24:04.956Z,0.29
2022-10-01T00:29:11.276Z,0.20
2022-10-01T00:34:15.816Z,0.31
2022-10-01T00:39:18.536Z,0.32
2022-10-01T00:44:32.664Z,0.33
2022-10-01T00:49:37.397Z,0.33
2022-10-01T00:55:06.054Z,0.42
2022-10-01T01:00:10.515Z,0.45
2022-10-01T01:05:13.843Z,0.56
2022-10-01T01:10:27.303Z,0.67
2022-10-01T01:15:42.286Z,0.64
2022-10-01T01:21:17.000Z,0.72
2022-10-01T01:26:42.709Z,0.77
2022-10-01T01:31:46.774Z,0.82
2022-10-01T01:36:56.237Z,0.73
2022-10-01T01:42:04.089Z,0.72
2022-10-01T01:47:07.851Z,0.65
2022-10-01T01:52:13.741Z,0.55
2022-10-01T01:57:20.584Z,0.68
2022-10-01T02:02:30.283Z,0.64
2022-10-01T02:07:33.031Z,0.70
2022-10-01T02:13:08.663Z,0.72
2022-10-01T02:18:17.043Z,0.46
2022-10-01T02:23:26.405Z,0.22
2022-10-01T02:28:29.865Z,0.26
2022-10-01T02:33:37.131Z,0.08
2022-10-01T02:38:42.644Z,0.23
2022-10-01T02:44:06.377Z,0.24
2022-10-01T02:49:09.470Z,0.20
2022-10-01T02:54:18.394Z,0.08
2022-10-01T02:59:22.861Z,0.10
2022-10-01T03:04:25.555Z,-0.03
2022-10-01T03:09:28.275Z,-0.03
2022-10-01T03:14:32.695Z,-0.16
2022-10-01T03:19:35.423Z,-0.20
2022-10-01T03:24:38.194Z,-0.11
2022-10-01T03:29:40.903Z,-0.07
2022-10-01T03:34:43.712Z,0.08
2022-10-01T03:39:46.463Z,0.16
2022-10-01T03:44:49.180Z,0.24
2022-10-01T03:49:52.094Z,0.38
2022-10-01T03:54:54.775Z,0.46
2022-10-01T03:59:57.421Z,0.62
2022-10-01T04:05:00.122Z,0.67
2022-10-01T04:10:02.817Z,0.77
2022-10-01T04:15:06.217Z,0.91
2022-10-01T04:20:09.023Z,1.06
2022-10-01T04:25:12.425Z,1.11
2022-10-01T04:30:15.145Z,1.26
2022-10-01T04:35:18.106Z,1.34
2022-10-01T04:40:20.784Z,1.52
2022-10-01T04:45:23.879Z,1.56
2022-10-01T04:50:27.671Z,1.75
2022-10-01T04:55:30.391Z,1.86
2022-10-01T05:00:33.135Z,1.94
2022-10-01T05:05:35.918Z,2.10
2022-10-01T05:10:38.897Z,2.12
2022-10-01T05:15:41.755Z,2.24
2022-10-01T05:20:44.517Z,2.28
2022-10-01T05:25:47.364Z,2.43
2022-10-01T05:30:51.377Z,2.59
2022-10-01T05:35:54.165Z,2.78
2022-10-01T05:40:56.930Z,2.87
2022-10-01T05:46:03.660Z,3.12
2022-10-01T05:51:08.536Z,3.22
2022-10-01T05:56:11.879Z,3.33
2022-10-01T06:01:14.961Z,3.44
2022-10-01T06:06:24.524Z,3.60
2022-10-01T06:11:27.917Z,3.65
2022-10-01T06:16:32.107Z,3.73
2022-10-01T06:21:36.248Z,3.79
2022-10-01T06:26:39.276Z,3.97
2022-10-01T06:31:42.159Z,4.24
2022-10-01T06:36:44.859Z,4.22
2022-10-01T06:41:50.223Z,4.23
2022-10-01T06:46:53.249Z,4.09
2022-10-01T06:52:14.164Z,3.97
2022-10-01T06:57:16.903Z,3.80
2022-10-01T07:02:29.182Z,3.98
2022-10-01T07:07:33.606Z,4.08
2022-10-01T07:12:37.665Z,4.25
2022-10-01T07:17:45.298Z,4.61
2022-10-01T07:22:50.010Z,5.06
2022-10-01T07:28:00.947Z,5.42
2022-10-01T07:33:03.974Z,5.67
2022-10-01T07:38:07.781Z,5.75
2022-10-01T07:43:10.597Z,5.82
2022-10-01T07:48:15.414Z,5.82
2022-10-01T07:53:18.276Z,6.00
2022-10-01T07:58:24.412Z,6.47
2022-10-01T08:03:27.219Z,6.87
2022-10-01T08:08:31.561Z,7.06
2022-10-01T08:13:35.411Z,7.18
2022-10-01T08:18:38.640Z,7.41
2022-10-01T08:23:41.285Z,7.27
2022-10-01T08:28:44.007Z,6.95
2022-10-01T08:33:46.726Z,7.41
2022-10-01T08:38:49.870Z,7.80
2022-10-01T08:43:52.945Z,7.21
2022-10-01T08:49:21.042Z,6.33
2022-10-01T08:54:28.823Z,5.54
2022-10-01T08:59:55.197Z,5.04
2022-10-01T09:05:01.733Z,4.97
2022-10-01T09:10:26.052Z,4.87
2022-10-01T09:15:45.854Z,4.81
2022-10-01T09:20:53.992Z,4.83
2022-10-01T09:25:58.622Z,4.86
2022-10-01T09:31:12.048Z,4.70
2022-10-01T09:36:24.006Z,4.53
2022-10-01T09:41:27.013Z,4.53
2022-10-01T09:46:29.760Z,4.76
2022-10-01T09:51:47.653Z,4.85
2022-10-01T09:56:58.963Z,5.01
2022-10-01T10:02:02.916Z,5.05
2022-10-01T10:07:06.418Z,5.13
2022-10-01T10:12:26.312Z,4.96
2022-10-01T10:17:29.008Z,4.58
2022-10-01T10:22:31.704Z,4.56
2022-10-01T10:27:36.651Z,4.57
2022-10-01T10:32:39.328Z,4.57
2022-10-01T10:37:51.126Z,4.62
2022-10-01T10:42:55.428Z,4.63
2022-10-01T10:47:58.470Z,4.55
2022-10-01T10:53:25.036Z,4.65
2022-10-01T10:58:33.601Z,4.61
2022-10-01T11:03:38.787Z,4.41
2022-10-01T11:08:42.730Z,4.50
2022-10-01T11:14:10.928Z,4.51
2022-10-01T11:19:18.673Z,4.38
2022-10-01T11:24:27.161Z,4.23
2022-10-01T11:29:32.632Z,4.11
2022-10-01T11:34:49.942Z,3.98
2022-10-01T11:39:56.065Z,3.67
2022-10-01T11:45:08.040Z,3.73
2022-10-01T11:50:25.615Z,3.57
2022-10-01T11:55:51.592Z,3.45
2022-10-01T12:01:16.975Z,3.41
2022-10-01T12:06:54.146Z,3.35
2022-10-01T12:12:07.133Z,3.26
2022-10-01T12:17:19.914Z,3.30
2022-10-01T12:22:26.790Z,3.23
2022-10-01T12:27:40.432Z,3.10
2022-10-01T12:33:01.605Z,3.04
2022-10-01T12:38:14.139Z,2.94
2022-10-01T12:43:36.324Z,2.86
2022-10-01T12:48:48.778Z,2.80
2022-10-01T12:54:03.416Z,2.80
2022-10-01T12:59:25.299Z,2.57
2022-10-01T13:05:00.285Z,2.68
2022-10-01T13:10:21.984Z,2.63
2022-10-01T13:15:29.173Z,2.58
2022-10-01T13:20:44.298Z,2.57
2022-10-01T13:25:59.548Z,2.50
2022-10-01T13:31:11.814Z,2.40
2022-10-01T13:36:17.228Z,2.40
2022-10-01T13:41:22.582Z,2.41
2022-10-01T13:46:31.581Z,2.37
2022-10-01T13:51:36.353Z,2.50
2022-10-01T13:56:39.134Z,2.49
2022-10-01T14:01:42.615Z,2.45
2022-10-01T14:06:57.849Z,2.44
2022-10-01T14:12:22.026Z,2.47
2022-10-01T14:17:32.532Z,2.48
2022-10-01T14:22:53.751Z,2.43
2022-10-01T14:28:17.911Z,2.42
2022-10-01T14:33:42.996Z,2.44
2022-10-01T14:38:45.824Z,2.40
2022-10-01T14:43:49.172Z,2.29
2022-10-01T14:49:01.902Z,2.38
2022-10-01T14:54:04.628Z,2.37
2022-10-01T14:59:09.853Z,2.29
2022-10-01T15:04:22.280Z,2.14
2022-10-01T15:09:25.054Z,1.97
2022-10-01T15:14:28.392Z,1.83
2022-10-01T15:19:31.581Z,1.69
2022-10-01T15:24:39.750Z,1.64
2022-10-01T15:29:43.236Z,1.56
2022-10-01T15:34:52.409Z,1.50
2022-10-01T15:39:55.970Z,1.47
2022-10-01T15:45:07.697Z,1.39
2022-10-01T15:50:10.463Z,1.36
2022-10-01T15:55:17.686Z,1.29
2022-10-01T16:00:26.460Z,1.28
2022-10-01T16:05:33.643Z,1.27
2022-10-01T16:10:41.352Z,1.13
2022-10-01T16:15:44.365Z,1.17
2022-10-01T16:20:56.963Z,1.15
2022-10-01T16:25:59.726Z,1.14
2022-10-01T16:31:04.814Z,1.18
2022-10-01T16:36:08.636Z,1.28
2022-10-01T16:41:12.514Z,1.26
2022-10-01T16:46:15.264Z,1.32
2022-10-01T16:51:19.322Z,1.36
2022-10-01T16:56:26.883Z,1.39
2022-10-01T17:01:31.502Z,1.21
2022-10-01T17:06:34.746Z,1.31
2022-10-01T17:11:39.217Z,1.28
2022-10-01T17:16:42.424Z,1.22
2022-10-01T17:21:45.580Z,1.26
2022-10-01T17:26:48.586Z,1.28
2022-10-01T17:31:53.621Z,1.08
2022-10-01T17:36:56.561Z,1.04
2022-10-01T17:41:59.254Z,0.78
2022-10-01T17:47:01.991Z,0.73
2022-10-01T17:52:06.102Z,0.63
2022-10-01T17:57:11.269Z,0.45
2022-10-01T18:02:39.615Z,0.30
2022-10-01T18:07:37.733Z,-0.04
2022-10-01T18:12:40.688Z,-0.34
2022-10-01T18:17:51.061Z,-0.46
2022-10-01T18:22:54.284Z,-0.90
2022-10-01T18:27:57.047Z,-1.31
2022-10-01T18:33:01.823Z,-1.48
2022-10-01T18:38:22.009Z,-1.71
2022-10-01T18:43:26.102Z,-1.91
2022-10-01T18:48:41.418Z,-2.09
2022-10-01T18:53:50.130Z,-2.21
2022-10-01T18:59:23.727Z,-2.22
2022-10-01T19:04:41.616Z,-1.98
2022-10-01T19:10:19.219Z,-1.97
2022-10-01T19:15:39.784Z,-2.17
2022-10-01T19:21:03.146Z,-2.22
2022-10-01T19:26:12.030Z,-2.35
2022-10-01T19:31:33.349Z,-2.52
2022-10-01T19:36:39.666Z,-2.71
2022-10-01T19:41:48.306Z,-2.76
2022-10-01T19:46:52.073Z,-2.85
2022-10-01T19:52:02.024Z,-2.91
2022-10-01T19:57:13.720Z,-3.04
2022-10-01T20:02:39.388Z,-3.04
2022-10-01T20:07:59.358Z,-3.08
2022-10-01T20:13:23.660Z,-3.13
2022-10-01T20:19:23.619Z,-3.21
2022-10-01T20:24:45.035Z,-3.14
2022-10-01T20:30:07.430Z,-3.21
2022-10-01T20:35:30.678Z,-3.25
2022-10-01T20:40:56.083Z,-3.33
2022-10-01T20:46:03.347Z,-3.34
2022-10-01T20:51:11.029Z,-3.33
2022-10-01T20:56:45.822Z,-3.42
2022-10-01T21:02:02.826Z,-3.58
2022-10-01T21:07:25.832Z,-3.54
2022-10-01T21:12:42.850Z,-3.49
2022-10-01T21:17:58.236Z,-3.57
2022-10-01T21:23:27.997Z,-3.68
2022-10-01T21:28:52.248Z,-3.77
2022-10-01T21:34:28.941Z,-3.86
2022-10-01T21:39:34.231Z,-3.88
2022-10-01T21:44:49.000Z,-3.87
2022-10-01T21:49:54.484Z,-3.80
2022-10-01T21:55:15.190Z,-3.88
2022-10-01T22:00:23.449Z,-3.96
2022-10-01T22:06:10.267Z,-3.95
2022-10-01T22:11:18.113Z,-3.95
2022-10-01T22:16:22.493Z,-3.96
2022-10-01T22:21:26.494Z,-3.94
2022-10-01T22:26:31.562Z,-4.04
2022-10-01T22:31:36.179Z,-4.14
2022-10-01T22:36:56.983Z,-4.06
2022-10-01T22:42:17.005Z,-4.09
2022-10-01T22:47:46.281Z,-4.20
2022-10-01T22:53:13.321Z,-4.24
2022-10-01T22:58:33.397Z,-4.26
2022-10-01T23:04:13.325Z,-4.22
2022-10-01T23:09:20.244Z,-4.22
2022-10-01T23:14:38.430Z,-3.99
2022-10-01T23:20:11.705Z,-3.81
2022-10-01T23:25:14.377Z,-3.64
2022-10-01T23:30:18.608Z,-3.45
2022-10-01T23:35:23.401Z,-3.27
2022-10-01T23:40:35.378Z,-3.08
2022-10-01T23:45:40.475Z,-3.13
2022-10-01T23:51:05.677Z,-3.18
2022-10-01T23:56:29.648Z,-3.23
